sensor_id;sensor_type;location;lat;lon;timestamp;P1;durP1;ratioP1;P2;durP2;ratioP2
75154;SDS011;63735;44.730;37.818;2022-12-29T00:01:55;5.85;;;2.80;;
75154;SDS011;63735;44.730;37.818;2022-12-29T00:04:21;10.43;;;3.90;;
75154;SDS011;63735;44.730;37.818;2022-12-29T00:06:47;7.13;;;3.80;;
75154;SDS011;63735;44.730;37.818;2022-12-29T00:09:14;7.82;;;3.40;;
75154;SDS011;63735;44.730;37.818;2022-12-29T00:11:42;8.93;;;3.55;;
75154;SDS011;63735;44.730;37.818;2022-12-29T00:14:09;7.05;;;3.30;;
75154;SDS011;63735;44.730;37.818;2022-12-29T00:16:54;7.15;;;3.83;;
75154;SDS011;63735;44.730;37.818;2022-12-29T00:19:20;9.90;;;3.35;;
75154;SDS011;63735;44.730;37.818;2022-12-29T00:22:05;9.20;;;3.80;;
75154;SDS011;63735;44.730;37.818;2022-12-29T00:24:49;7.28;;;3.40;;
75154;SDS011;63735;44.730;37.818;2022-12-29T00:30:02;5.13;;;2.65;;
75154;SDS011;63735;44.730;37.818;2022-12-29T00:32:52;8.10;;;2.90;;
75154;SDS011;63735;44.730;37.818;2022-12-29T00:35:41;6.20;;;3.30;;
75154;SDS011;63735;44.730;37.818;2022-12-29T00:38:11;5.97;;;2.55;;
75154;SDS011;63735;44.730;37.818;2022-12-29T00:40:56;10.20;;;3.75;;
75154;SDS011;63735;44.730;37.818;2022-12-29T00:43:41;4.53;;;2.58;;
75154;SDS011;63735;44.730;37.818;2022-12-29T00:46:26;7.55;;;2.60;;
75154;SDS011;63735;44.730;37.818;2022-12-29T00:48:52;4.93;;;2.72;;
75154;SDS011;63735;44.730;37.818;2022-12-29T00:51:36;9.32;;;2.60;;
75154;SDS011;63735;44.730;37.818;2022-12-29T00:54:02;5.28;;;2.55;;
75154;SDS011;63735;44.730;37.818;2022-12-29T00:56:28;7.50;;;2.67;;
75154;SDS011;63735;44.730;37.818;2022-12-29T00:58:54;5.10;;;2.50;;
75154;SDS011;63735;44.730;37.818;2022-12-29T01:01:20;5.28;;;2.45;;
75154;SDS011;63735;44.730;37.818;2022-12-29T01:03:46;3.83;;;2.75;;
75154;SDS011;63735;44.730;37.818;2022-12-29T01:06:12;7.03;;;2.85;;
75154;SDS011;63735;44.730;37.818;2022-12-29T01:08:38;5.85;;;2.15;;
75154;SDS011;63735;44.730;37.818;2022-12-29T01:11:10;3.38;;;2.20;;
75154;SDS011;63735;44.730;37.818;2022-12-29T01:13:38;4.90;;;2.33;;
75154;SDS011;63735;44.730;37.818;2022-12-29T01:16:06;7.38;;;1.90;;
75154;SDS011;63735;44.730;37.818;2022-12-29T01:18:33;3.72;;;2.17;;
75154;SDS011;63735;44.730;37.818;2022-12-29T01:21:00;2.65;;;2.05;;
75154;SDS011;63735;44.730;37.818;2022-12-29T01:23:27;5.95;;;2.53;;
75154;SDS011;63735;44.730;37.818;2022-12-29T01:25:54;5.78;;;2.05;;
75154;SDS011;63735;44.730;37.818;2022-12-29T01:28:23;3.42;;;2.35;;
75154;SDS011;63735;44.730;37.818;2022-12-29T01:30:49;6.88;;;2.33;;
75154;SDS011;63735;44.730;37.818;2022-12-29T01:33:15;3.65;;;2.10;;
75154;SDS011;63735;44.730;37.818;2022-12-29T01:35:41;4.47;;;1.85;;
75154;SDS011;63735;44.730;37.818;2022-12-29T01:38:07;5.30;;;2.05;;
75154;SDS011;63735;44.730;37.818;2022-12-29T01:40:33;3.38;;;1.90;;
75154;SDS011;63735;44.730;37.818;2022-12-29T01:43:08;3.10;;;1.80;;
75154;SDS011;63735;44.730;37.818;2022-12-29T01:45:38;3.38;;;1.90;;
75154;SDS011;63735;44.730;37.818;2022-12-29T01:48:17;3.85;;;2.03;;
75154;SDS011;63735;44.730;37.818;2022-12-29T01:50:50;4.75;;;1.92;;
75154;SDS011;63735;44.730;37.818;2022-12-29T01:53:24;8.82;;;2.00;;
75154;SDS011;63735;44.730;37.818;2022-12-29T01:55:58;4.50;;;2.28;;
75154;SDS011;63735;44.730;37.818;2022-12-29T01:58:28;3.28;;;2.10;;
75154;SDS011;63735;44.730;37.818;2022-12-29T02:00:58;3.67;;;2.25;;
75154;SDS011;63735;44.730;37.818;2022-12-29T02:03:25;3.50;;;2.10;;
75154;SDS011;63735;44.730;37.818;2022-12-29T02:05:55;4.93;;;2.38;;
75154;SDS011;63735;44.730;37.818;2022-12-29T02:08:26;4.35;;;1.58;;
75154;SDS011;63735;44.730;37.818;2022-12-29T02:10:54;4.40;;;2.17;;
75154;SDS011;63735;44.730;37.818;2022-12-29T02:13:25;3.22;;;1.90;;
75154;SDS011;63735;44.730;37.818;2022-12-29T02:30:04;5.82;;;1.90;;
75154;SDS011;63735;44.730;37.818;2022-12-29T02:32:38;5.15;;;2.42;;
75154;SDS011;63735;44.730;37.818;2022-12-29T02:41:07;3.53;;;1.92;;
75154;SDS011;63735;44.730;37.818;2022-12-29T02:43:37;2.90;;;1.80;;
75154;SDS011;63735;44.730;37.818;2022-12-29T02:49:34;3.22;;;2.35;;
75154;SDS011;63735;44.730;37.818;2022-12-29T02:54:32;6.72;;;2.40;;
75154;SDS011;63735;44.730;37.818;2022-12-29T02:59:51;2.65;;;2.03;;
75154;SDS011;63735;44.730;37.818;2022-12-29T03:02:26;5.05;;;2.58;;
75154;SDS011;63735;44.730;37.818;2022-12-29T03:10:51;4.40;;;2.67;;
75154;SDS011;63735;44.730;37.818;2022-12-29T03:13:45;7.05;;;2.72;;
75154;SDS011;63735;44.730;37.818;2022-12-29T03:16:46;6.60;;;2.38;;
75154;SDS011;63735;44.730;37.818;2022-12-29T03:19:32;6.75;;;2.00;;
75154;SDS011;63735;44.730;37.818;2022-12-29T03:22:05;9.02;;;2.72;;
75154;SDS011;63735;44.730;37.818;2022-12-29T03:25:23;4.95;;;2.63;;
75154;SDS011;63735;44.730;37.818;2022-12-29T03:27:55;7.07;;;3.17;;
75154;SDS011;63735;44.730;37.818;2022-12-29T03:30:26;8.23;;;2.47;;
75154;SDS011;63735;44.730;37.818;2022-12-29T03:32:55;4.55;;;2.70;;
75154;SDS011;63735;44.730;37.818;2022-12-29T03:35:29;3.53;;;2.30;;
75154;SDS011;63735;44.730;37.818;2022-12-29T03:38:00;3.10;;;1.88;;
75154;SDS011;63735;44.730;37.818;2022-12-29T03:40:33;5.53;;;2.08;;
75154;SDS011;63735;44.730;37.818;2022-12-29T03:43:00;3.75;;;2.08;;
75154;SDS011;63735;44.730;37.818;2022-12-29T03:45:32;8.05;;;2.05;;
75154;SDS011;63735;44.730;37.818;2022-12-29T03:47:59;6.82;;;2.15;;
75154;SDS011;63735;44.730;37.818;2022-12-29T03:50:26;5.03;;;1.92;;
75154;SDS011;63735;44.730;37.818;2022-12-29T03:52:52;3.13;;;2.22;;
75154;SDS011;63735;44.730;37.818;2022-12-29T03:55:18;3.80;;;2.10;;
75154;SDS011;63735;44.730;37.818;2022-12-29T03:57:44;14.23;;;2.78;;
75154;SDS011;63735;44.730;37.818;2022-12-29T04:00:15;6.38;;;3.55;;
75154;SDS011;63735;44.730;37.818;2022-12-29T04:02:43;14.25;;;4.28;;
75154;SDS011;63735;44.730;37.818;2022-12-29T04:05:15;8.38;;;3.55;;
75154;SDS011;63735;44.730;37.818;2022-12-29T04:07:41;12.02;;;3.70;;
75154;SDS011;63735;44.730;37.818;2022-12-29T04:10:07;9.43;;;3.58;;
75154;SDS011;63735;44.730;37.818;2022-12-29T04:12:34;9.40;;;4.03;;
75154;SDS011;63735;44.730;37.818;2022-12-29T04:15:01;8.32;;;3.53;;
75154;SDS011;63735;44.730;37.818;2022-12-29T04:17:27;6.97;;;2.50;;
75154;SDS011;63735;44.730;37.818;2022-12-29T04:19:53;8.93;;;2.83;;
75154;SDS011;63735;44.730;37.818;2022-12-29T04:22:39;7.80;;;2.05;;
75154;SDS011;63735;44.730;37.818;2022-12-29T04:25:05;3.35;;;2.15;;
75154;SDS011;63735;44.730;37.818;2022-12-29T04:27:32;6.32;;;2.83;;
75154;SDS011;63735;44.730;37.818;2022-12-29T04:30:27;8.73;;;3.10;;
75154;SDS011;63735;44.730;37.818;2022-12-29T04:33:07;5.32;;;2.88;;
75154;SDS011;63735;44.730;37.818;2022-12-29T04:35:33;7.28;;;2.95;;
75154;SDS011;63735;44.730;37.818;2022-12-29T04:37:59;4.95;;;2.83;;
75154;SDS011;63735;44.730;37.818;2022-12-29T04:40:25;9.05;;;3.80;;
75154;SDS011;63735;44.730;37.818;2022-12-29T04:42:51;6.40;;;2.40;;
75154;SDS011;63735;44.730;37.818;2022-12-29T04:45:19;10.02;;;3.80;;
75154;SDS011;63735;44.730;37.818;2022-12-29T04:47:57;7.63;;;2.80;;
75154;SDS011;63735;44.730;37.818;2022-12-29T04:50:42;6.35;;;2.88;;
75154;SDS011;63735;44.730;37.818;2022-12-29T04:53:18;9.68;;;2.13;;
75154;SDS011;63735;44.730;37.818;2022-12-29T04:55:48;5.85;;;2.35;;
75154;SDS011;63735;44.730;37.818;2022-12-29T04:58:16;7.20;;;2.00;;
75154;SDS011;63735;44.730;37.818;2022-12-29T05:00:42;8.73;;;2.47;;
75154;SDS011;63735;44.730;37.818;2022-12-29T05:03:09;7.05;;;2.58;;
75154;SDS011;63735;44.730;37.818;2022-12-29T05:05:38;3.67;;;1.75;;
75154;SDS011;63735;44.730;37.818;2022-12-29T05:08:05;3.08;;;2.33;;
75154;SDS011;63735;44.730;37.818;2022-12-29T05:10:31;6.03;;;2.40;;
75154;SDS011;63735;44.730;37.818;2022-12-29T05:13:00;3.60;;;2.20;;
75154;SDS011;63735;44.730;37.818;2022-12-29T05:15:27;3.60;;;1.95;;
75154;SDS011;63735;44.730;37.818;2022-12-29T05:17:53;3.83;;;2.22;;
75154;SDS011;63735;44.730;37.818;2022-12-29T05:20:19;2.42;;;1.83;;
75154;SDS011;63735;44.730;37.818;2022-12-29T05:22:45;4.05;;;2.03;;
75154;SDS011;63735;44.730;37.818;2022-12-29T05:25:11;4.05;;;2.00;;
75154;SDS011;63735;44.730;37.818;2022-12-29T05:27:56;5.15;;;2.47;;
75154;SDS011;63735;44.730;37.818;2022-12-29T05:30:47;4.28;;;2.00;;
75154;SDS011;63735;44.730;37.818;2022-12-29T05:33:14;6.57;;;2.92;;
75154;SDS011;63735;44.730;37.818;2022-12-29T05:35:40;3.15;;;1.90;;
75154;SDS011;63735;44.730;37.818;2022-12-29T05:38:06;3.55;;;2.25;;
75154;SDS011;63735;44.730;37.818;2022-12-29T05:40:32;5.00;;;2.55;;
75154;SDS011;63735;44.730;37.818;2022-12-29T05:43:03;9.00;;;2.83;;
75154;SDS011;63735;44.730;37.818;2022-12-29T05:45:43;8.63;;;4.32;;
75154;SDS011;63735;44.730;37.818;2022-12-29T05:48:41;15.07;;;3.25;;
75154;SDS011;63735;44.730;37.818;2022-12-29T05:51:20;9.70;;;4.22;;
75154;SDS011;63735;44.730;37.818;2022-12-29T05:53:47;9.50;;;2.95;;
75154;SDS011;63735;44.730;37.818;2022-12-29T05:56:14;5.03;;;2.92;;
75154;SDS011;63735;44.730;37.818;2022-12-29T05:58:41;6.28;;;2.47;;
75154;SDS011;63735;44.730;37.818;2022-12-29T06:01:07;3.95;;;2.25;;
75154;SDS011;63735;44.730;37.818;2022-12-29T06:03:34;6.82;;;2.60;;
75154;SDS011;63735;44.730;37.818;2022-12-29T06:06:00;4.93;;;2.17;;
75154;SDS011;63735;44.730;37.818;2022-12-29T06:08:27;4.82;;;2.38;;
75154;SDS011;63735;44.730;37.818;2022-12-29T06:10:53;4.30;;;2.67;;
75154;SDS011;63735;44.730;37.818;2022-12-29T06:13:19;5.35;;;2.30;;
75154;SDS011;63735;44.730;37.818;2022-12-29T06:15:48;8.48;;;3.15;;
75154;SDS011;63735;44.730;37.818;2022-12-29T06:18:15;9.90;;;3.40;;
75154;SDS011;63735;44.730;37.818;2022-12-29T06:20:43;8.63;;;3.65;;
75154;SDS011;63735;44.730;37.818;2022-12-29T06:23:09;9.88;;;3.97;;
75154;SDS011;63735;44.730;37.818;2022-12-29T06:25:37;8.48;;;3.03;;
75154;SDS011;63735;44.730;37.818;2022-12-29T06:28:03;5.45;;;2.70;;
75154;SDS011;63735;44.730;37.818;2022-12-29T06:30:30;7.85;;;3.42;;
75154;SDS011;63735;44.730;37.818;2022-12-29T06:32:58;14.00;;;4.40;;
75154;SDS011;63735;44.730;37.818;2022-12-29T06:35:24;14.73;;;5.15;;
75154;SDS011;63735;44.730;37.818;2022-12-29T06:37:51;14.68;;;4.70;;
75154;SDS011;63735;44.730;37.818;2022-12-29T06:40:18;12.73;;;5.60;;
75154;SDS011;63735;44.730;37.818;2022-12-29T06:43:04;18.33;;;6.40;;
75154;SDS011;63735;44.730;37.818;2022-12-29T06:45:44;28.38;;;7.43;;
75154;SDS011;63735;44.730;37.818;2022-12-29T06:48:10;20.92;;;7.47;;
75154;SDS011;63735;44.730;37.818;2022-12-29T06:50:36;23.38;;;6.72;;
75154;SDS011;63735;44.730;37.818;2022-12-29T06:53:01;17.50;;;5.43;;
75154;SDS011;63735;44.730;37.818;2022-12-29T06:55:27;27.00;;;6.43;;
75154;SDS011;63735;44.730;37.818;2022-12-29T06:57:54;18.83;;;5.40;;
75154;SDS011;63735;44.730;37.818;2022-12-29T07:00:21;22.52;;;6.68;;
75154;SDS011;63735;44.730;37.818;2022-12-29T07:02:48;17.30;;;6.20;;
75154;SDS011;63735;44.730;37.818;2022-12-29T07:05:14;29.88;;;7.45;;
75154;SDS011;63735;44.730;37.818;2022-12-29T07:07:40;23.00;;;8.30;;
75154;SDS011;63735;44.730;37.818;2022-12-29T07:10:06;27.80;;;9.38;;
75154;SDS011;63735;44.730;37.818;2022-12-29T07:12:32;23.83;;;9.00;;
75154;SDS011;63735;44.730;37.818;2022-12-29T07:14:58;47.53;;;15.55;;
75154;SDS011;63735;44.730;37.818;2022-12-29T07:17:25;24.90;;;9.45;;
75154;SDS011;63735;44.730;37.818;2022-12-29T07:19:50;36.03;;;9.05;;
75154;SDS011;63735;44.730;37.818;2022-12-29T07:22:16;37.50;;;8.82;;
75154;SDS011;63735;44.730;37.818;2022-12-29T07:24:42;28.00;;;7.90;;
75154;SDS011;63735;44.730;37.818;2022-12-29T07:27:08;18.98;;;8.32;;
75154;SDS011;63735;44.730;37.818;2022-12-29T07:29:36;32.33;;;8.07;;
75154;SDS011;63735;44.730;37.818;2022-12-29T07:32:02;15.68;;;6.28;;
75154;SDS011;63735;44.730;37.818;2022-12-29T07:34:28;14.40;;;6.18;;
75154;SDS011;63735;44.730;37.818;2022-12-29T07:36:54;16.35;;;6.70;;
75154;SDS011;63735;44.730;37.818;2022-12-29T07:39:20;8.63;;;3.13;;
75154;SDS011;63735;44.730;37.818;2022-12-29T07:41:46;29.77;;;7.70;;
75154;SDS011;63735;44.730;37.818;2022-12-29T07:44:16;22.23;;;7.85;;
75154;SDS011;63735;44.730;37.818;2022-12-29T07:47:00;29.23;;;9.07;;
75154;SDS011;63735;44.730;37.818;2022-12-29T07:49:26;27.50;;;8.25;;
75154;SDS011;63735;44.730;37.818;2022-12-29T07:51:52;27.13;;;6.88;;
75154;SDS011;63735;44.730;37.818;2022-12-29T07:54:18;20.73;;;6.80;;
75154;SDS011;63735;44.730;37.818;2022-12-29T07:56:44;18.60;;;7.93;;
75154;SDS011;63735;44.730;37.818;2022-12-29T07:59:10;22.38;;;7.40;;
75154;SDS011;63735;44.730;37.818;2022-12-29T08:01:37;19.88;;;7.30;;
75154;SDS011;63735;44.730;37.818;2022-12-29T08:04:04;25.75;;;8.10;;
75154;SDS011;63735;44.730;37.818;2022-12-29T08:06:30;22.42;;;8.00;;
75154;SDS011;63735;44.730;37.818;2022-12-29T08:08:56;27.70;;;7.68;;
75154;SDS011;63735;44.730;37.818;2022-12-29T08:11:22;38.15;;;7.85;;
75154;SDS011;63735;44.730;37.818;2022-12-29T08:13:49;33.30;;;8.60;;
75154;SDS011;63735;44.730;37.818;2022-12-29T08:16:15;17.75;;;7.38;;
75154;SDS011;63735;44.730;37.818;2022-12-29T08:18:41;18.25;;;6.78;;
75154;SDS011;63735;44.730;37.818;2022-12-29T08:21:07;23.52;;;7.97;;
75154;SDS011;63735;44.730;37.818;2022-12-29T08:23:33;26.60;;;8.20;;
75154;SDS011;63735;44.730;37.818;2022-12-29T08:26:03;22.25;;;8.07;;
75154;SDS011;63735;44.730;37.818;2022-12-29T08:28:30;17.80;;;6.05;;
75154;SDS011;63735;44.730;37.818;2022-12-29T08:30:57;15.55;;;5.13;;
75154;SDS011;63735;44.730;37.818;2022-12-29T08:33:24;12.23;;;4.60;;
75154;SDS011;63735;44.730;37.818;2022-12-29T08:35:50;12.38;;;4.55;;
75154;SDS011;63735;44.730;37.818;2022-12-29T08:38:16;13.32;;;4.70;;
75154;SDS011;63735;44.730;37.818;2022-12-29T08:40:43;10.82;;;4.53;;
75154;SDS011;63735;44.730;37.818;2022-12-29T08:43:09;8.68;;;3.78;;
75154;SDS011;63735;44.730;37.818;2022-12-29T08:45:35;1.83;;;1.33;;
75154;SDS011;63735;44.730;37.818;2022-12-29T08:48:01;6.22;;;2.15;;
75154;SDS011;63735;44.730;37.818;2022-12-29T08:50:27;2.63;;;1.10;;
75154;SDS011;63735;44.730;37.818;2022-12-29T08:52:53;1.75;;;1.15;;
75154;SDS011;63735;44.730;37.818;2022-12-29T08:55:19;2.65;;;0.77;;
75154;SDS011;63735;44.730;37.818;2022-12-29T08:57:48;1.98;;;1.08;;
75154;SDS011;63735;44.730;37.818;2022-12-29T09:00:17;8.45;;;1.80;;
75154;SDS011;63735;44.730;37.818;2022-12-29T09:02:43;3.47;;;1.10;;
75154;SDS011;63735;44.730;37.818;2022-12-29T09:05:09;7.25;;;0.98;;
75154;SDS011;63735;44.730;37.818;2022-12-29T09:07:35;3.88;;;0.65;;
75154;SDS011;63735;44.730;37.818;2022-12-29T09:10:02;5.28;;;1.15;;
75154;SDS011;63735;44.730;37.818;2022-12-29T09:12:28;2.45;;;0.70;;
75154;SDS011;63735;44.730;37.818;2022-12-29T09:14:54;1.40;;;0.85;;
75154;SDS011;63735;44.730;37.818;2022-12-29T09:17:20;3.58;;;0.98;;
75154;SDS011;63735;44.730;37.818;2022-12-29T09:20:04;1.33;;;0.95;;
75154;SDS011;63735;44.730;37.818;2022-12-29T09:22:31;1.75;;;0.80;;
75154;SDS011;63735;44.730;37.818;2022-12-29T09:24:57;6.28;;;2.35;;
75154;SDS011;63735;44.730;37.818;2022-12-29T09:27:22;3.10;;;0.88;;
75154;SDS011;63735;44.730;37.818;2022-12-29T09:29:48;3.13;;;0.85;;
75154;SDS011;63735;44.730;37.818;2022-12-29T09:32:14;3.85;;;1.08;;
75154;SDS011;63735;44.730;37.818;2022-12-29T09:34:40;1.90;;;1.05;;
75154;SDS011;63735;44.730;37.818;2022-12-29T09:37:06;6.63;;;1.42;;
75154;SDS011;63735;44.730;37.818;2022-12-29T09:39:32;2.63;;;0.73;;
75154;SDS011;63735;44.730;37.818;2022-12-29T09:47:11;1.25;;;0.55;;
75154;SDS011;63735;44.730;37.818;2022-12-29T09:49:40;1.98;;;0.35;;
75154;SDS011;63735;44.730;37.818;2022-12-29T09:54:51;5.88;;;0.75;;
75154;SDS011;63735;44.730;37.818;2022-12-29T10:00:37;3.75;;;0.77;;
75154;SDS011;63735;44.730;37.818;2022-12-29T10:02:48;1.90;;;0.60;;
75154;SDS011;63735;44.730;37.818;2022-12-29T10:05:35;0.38;;;0.32;;
75154;SDS011;63735;44.730;37.818;2022-12-29T10:08:10;8.25;;;0.75;;
75154;SDS011;63735;44.730;37.818;2022-12-29T10:14:25;0.85;;;0.55;;
75154;SDS011;63735;44.730;37.818;2022-12-29T10:19:33;3.42;;;0.68;;
75154;SDS011;63735;44.730;37.818;2022-12-29T10:25:08;4.80;;;1.13;;
75154;SDS011;63735;44.730;37.818;2022-12-29T10:27:41;9.05;;;1.65;;
75154;SDS011;63735;44.730;37.818;2022-12-29T10:30:11;1.60;;;0.77;;
75154;SDS011;63735;44.730;37.818;2022-12-29T10:32:46;0.77;;;0.40;;
75154;SDS011;63735;44.730;37.818;2022-12-29T10:35:35;6.90;;;1.20;;
75154;SDS011;63735;44.730;37.818;2022-12-29T10:43:28;2.63;;;0.75;;
75154;SDS011;63735;44.730;37.818;2022-12-29T10:46:04;10.52;;;0.90;;
75154;SDS011;63735;44.730;37.818;2022-12-29T10:48:34;1.65;;;0.88;;
75154;SDS011;63735;44.730;37.818;2022-12-29T10:51:05;0.80;;;0.50;;
75154;SDS011;63735;44.730;37.818;2022-12-29T10:56:54;2.35;;;0.75;;
75154;SDS011;63735;44.730;37.818;2022-12-29T10:59:26;5.25;;;1.77;;
75154;SDS011;63735;44.730;37.818;2022-12-29T11:07:30;3.33;;;1.00;;
75154;SDS011;63735;44.730;37.818;2022-12-29T11:13:12;0.63;;;0.47;;
75154;SDS011;63735;44.730;37.818;2022-12-29T11:15:42;2.47;;;0.75;;
75154;SDS011;63735;44.730;37.818;2022-12-29T11:20:59;1.00;;;0.68;;
75154;SDS011;63735;44.730;37.818;2022-12-29T11:28:39;1.50;;;0.70;;
75154;SDS011;63735;44.730;37.818;2022-12-29T11:31:07;2.53;;;0.90;;
75154;SDS011;63735;44.730;37.818;2022-12-29T11:33:35;3.20;;;1.10;;
75154;SDS011;63735;44.730;37.818;2022-12-29T11:38:45;3.25;;;1.33;;
75154;SDS011;63735;44.730;37.818;2022-12-29T11:41:19;1.63;;;0.68;;
75154;SDS011;63735;44.730;37.818;2022-12-29T11:43:48;0.28;;;0.28;;
75154;SDS011;63735;44.730;37.818;2022-12-29T11:46:19;5.78;;;1.00;;
75154;SDS011;63735;44.730;37.818;2022-12-29T11:48:48;2.97;;;0.90;;
75154;SDS011;63735;44.730;37.818;2022-12-29T11:51:21;3.92;;;1.38;;
75154;SDS011;63735;44.730;37.818;2022-12-29T11:53:55;5.97;;;1.00;;
75154;SDS011;63735;44.730;37.818;2022-12-29T11:56:32;1.08;;;0.70;;
75154;SDS011;63735;44.730;37.818;2022-12-29T12:02:17;0.85;;;0.40;;
75154;SDS011;63735;44.730;37.818;2022-12-29T12:05:29;2.55;;;0.98;;
75154;SDS011;63735;44.730;37.818;2022-12-29T12:08:02;0.95;;;0.50;;
75154;SDS011;63735;44.730;37.818;2022-12-29T12:10:37;1.40;;;0.50;;
75154;SDS011;63735;44.730;37.818;2022-12-29T12:18:34;2.42;;;0.98;;
75154;SDS011;63735;44.730;37.818;2022-12-29T12:21:08;2.42;;;1.13;;
75154;SDS011;63735;44.730;37.818;2022-12-29T12:34:45;3.90;;;1.17;;
75154;SDS011;63735;44.730;37.818;2022-12-29T12:45:38;2.13;;;1.35;;
75154;SDS011;63735;44.730;37.818;2022-12-29T12:51:11;2.15;;;0.85;;
75154;SDS011;63735;44.730;37.818;2022-12-29T12:54:09;0.90;;;0.60;;
75154;SDS011;63735;44.730;37.818;2022-12-29T12:56:55;1.10;;;0.85;;
75154;SDS011;63735;44.730;37.818;2022-12-29T12:59:44;1.20;;;0.70;;
75154;SDS011;63735;44.730;37.818;2022-12-29T13:04:57;3.17;;;0.65;;
75154;SDS011;63735;44.730;37.818;2022-12-29T13:10:47;3.05;;;1.17;;
75154;SDS011;63735;44.730;37.818;2022-12-29T13:18:57;4.55;;;1.20;;
75154;SDS011;63735;44.730;37.818;2022-12-29T13:29:45;5.35;;;0.88;;
75154;SDS011;63735;44.730;37.818;2022-12-29T13:37:29;2.50;;;1.52;;
75154;SDS011;63735;44.730;37.818;2022-12-29T13:40:00;4.68;;;1.90;;
75154;SDS011;63735;44.730;37.818;2022-12-29T13:42:29;2.17;;;1.20;;
75154;SDS011;63735;44.730;37.818;2022-12-29T13:45:03;2.47;;;1.27;;
75154;SDS011;63735;44.730;37.818;2022-12-29T13:50:03;7.47;;;1.48;;
75154;SDS011;63735;44.730;37.818;2022-12-29T13:58:09;4.50;;;1.10;;
75154;SDS011;63735;44.730;37.818;2022-12-29T14:00:43;4.15;;;0.70;;
75154;SDS011;63735;44.730;37.818;2022-12-29T14:06:03;2.75;;;0.95;;
75154;SDS011;63735;44.730;37.818;2022-12-29T14:08:37;3.40;;;1.02;;
75154;SDS011;63735;44.730;37.818;2022-12-29T14:11:14;14.85;;;5.00;;
75154;SDS011;63735;44.730;37.818;2022-12-29T14:13:42;29.35;;;12.13;;
75154;SDS011;63735;44.730;37.818;2022-12-29T14:16:30;37.95;;;16.98;;
75154;SDS011;63735;44.730;37.818;2022-12-29T14:19:43;59.20;;;21.40;;
75154;SDS011;63735;44.730;37.818;2022-12-29T14:21:52;79.18;;;32.13;;
75154;SDS011;63735;44.730;37.818;2022-12-29T14:34:51;32.17;;;12.13;;
75154;SDS011;63735;44.730;37.818;2022-12-29T14:40:03;9.32;;;4.55;;
75154;SDS011;63735;44.730;37.818;2022-12-29T14:42:51;24.10;;;10.23;;
75154;SDS011;63735;44.730;37.818;2022-12-29T14:47:54;29.55;;;11.13;;
75154;SDS011;63735;44.730;37.818;2022-12-29T14:53:00;5.70;;;1.30;;
75154;SDS011;63735;44.730;37.818;2022-12-29T14:55:45;1.65;;;0.80;;
75154;SDS011;63735;44.730;37.818;2022-12-29T14:58:28;2.63;;;1.20;;
75154;SDS011;63735;44.730;37.818;2022-12-29T15:00:57;4.63;;;1.33;;
75154;SDS011;63735;44.730;37.818;2022-12-29T15:06:10;3.05;;;1.10;;
75154;SDS011;63735;44.730;37.818;2022-12-29T15:11:21;2.03;;;1.33;;
75154;SDS011;63735;44.730;37.818;2022-12-29T15:13:48;2.67;;;1.10;;
75154;SDS011;63735;44.730;37.818;2022-12-29T15:16:35;3.67;;;1.40;;
75154;SDS011;63735;44.730;37.818;2022-12-29T15:19:02;3.55;;;0.90;;
75154;SDS011;63735;44.730;37.818;2022-12-29T15:21:36;2.70;;;0.90;;
75154;SDS011;63735;44.730;37.818;2022-12-29T15:24:02;5.47;;;0.40;;
75154;SDS011;63735;44.730;37.818;2022-12-29T15:26:39;5.95;;;1.10;;
75154;SDS011;63735;44.730;37.818;2022-12-29T15:31:55;3.88;;;1.05;;
75154;SDS011;63735;44.730;37.818;2022-12-29T15:34:24;0.90;;;0.80;;
75154;SDS011;63735;44.730;37.818;2022-12-29T15:36:50;3.45;;;0.65;;
75154;SDS011;63735;44.730;37.818;2022-12-29T15:39:29;11.80;;;1.63;;
75154;SDS011;63735;44.730;37.818;2022-12-29T15:41:59;3.72;;;1.08;;
75154;SDS011;63735;44.730;37.818;2022-12-29T15:44:45;1.33;;;1.10;;
75154;SDS011;63735;44.730;37.818;2022-12-29T15:47:22;2.78;;;1.75;;
75154;SDS011;63735;44.730;37.818;2022-12-29T15:50:04;5.25;;;1.17;;
75154;SDS011;63735;44.730;37.818;2022-12-29T15:52:34;4.85;;;1.10;;
75154;SDS011;63735;44.730;37.818;2022-12-29T15:55:00;2.63;;;1.35;;
75154;SDS011;63735;44.730;37.818;2022-12-29T15:57:35;2.70;;;1.95;;
75154;SDS011;63735;44.730;37.818;2022-12-29T16:03:11;4.22;;;1.65;;
75154;SDS011;63735;44.730;37.818;2022-12-29T16:05:39;5.50;;;1.27;;
75154;SDS011;63735;44.730;37.818;2022-12-29T16:08:22;4.57;;;1.20;;
75154;SDS011;63735;44.730;37.818;2022-12-29T16:10:56;2.33;;;0.80;;
75154;SDS011;63735;44.730;37.818;2022-12-29T16:16:07;3.38;;;1.75;;
75154;SDS011;63735;44.730;37.818;2022-12-29T16:18:39;6.35;;;2.05;;
75154;SDS011;63735;44.730;37.818;2022-12-29T16:21:06;3.00;;;1.38;;
75154;SDS011;63735;44.730;37.818;2022-12-29T16:23:46;1.77;;;1.45;;
75154;SDS011;63735;44.730;37.818;2022-12-29T16:26:20;4.78;;;0.95;;
75154;SDS011;63735;44.730;37.818;2022-12-29T16:28:48;1.38;;;0.85;;
75154;SDS011;63735;44.730;37.818;2022-12-29T16:31:18;4.68;;;1.55;;
75154;SDS011;63735;44.730;37.818;2022-12-29T16:35:02;0.90;;;0.75;;
75154;SDS011;63735;44.730;37.818;2022-12-29T16:37:30;3.45;;;0.80;;
75154;SDS011;63735;44.730;37.818;2022-12-29T16:42:57;2.97;;;0.90;;
75154;SDS011;63735;44.730;37.818;2022-12-29T16:50:41;2.03;;;0.55;;
75154;SDS011;63735;44.730;37.818;2022-12-29T16:53:25;1.13;;;0.30;;
75154;SDS011;63735;44.730;37.818;2022-12-29T16:56:07;4.57;;;1.25;;
75154;SDS011;63735;44.730;37.818;2022-12-29T16:58:38;5.22;;;2.03;;
75154;SDS011;63735;44.730;37.818;2022-12-29T17:01:04;1.48;;;1.20;;
75154;SDS011;63735;44.730;37.818;2022-12-29T17:03:40;1.95;;;1.00;;
75154;SDS011;63735;44.730;37.818;2022-12-29T17:06:13;1.67;;;0.88;;
75154;SDS011;63735;44.730;37.818;2022-12-29T17:08:41;1.45;;;0.65;;
75154;SDS011;63735;44.730;37.818;2022-12-29T17:11:19;2.88;;;2.10;;
75154;SDS011;63735;44.730;37.818;2022-12-29T17:14:21;2.10;;;1.20;;
75154;SDS011;63735;44.730;37.818;2022-12-29T17:16:58;4.22;;;2.13;;
75154;SDS011;63735;44.730;37.818;2022-12-29T17:19:30;2.30;;;1.48;;
75154;SDS011;63735;44.730;37.818;2022-12-29T17:22:00;1.25;;;0.98;;
75154;SDS011;63735;44.730;37.818;2022-12-29T17:24:27;2.08;;;0.50;;
75154;SDS011;63735;44.730;37.818;2022-12-29T17:26:54;1.70;;;0.88;;
75154;SDS011;63735;44.730;37.818;2022-12-29T17:29:26;1.80;;;0.52;;
75154;SDS011;63735;44.730;37.818;2022-12-29T17:31:59;5.22;;;0.80;;
75154;SDS011;63735;44.730;37.818;2022-12-29T17:34:27;1.33;;;0.55;;
75154;SDS011;63735;44.730;37.818;2022-12-29T17:36:53;0.70;;;0.50;;
75154;SDS011;63735;44.730;37.818;2022-12-29T17:39:18;1.73;;;0.68;;
75154;SDS011;63735;44.730;37.818;2022-12-29T17:41:45;1.48;;;0.40;;
75154;SDS011;63735;44.730;37.818;2022-12-29T17:44:15;0.85;;;0.50;;
75154;SDS011;63735;44.730;37.818;2022-12-29T17:46:43;2.40;;;0.77;;
75154;SDS011;63735;44.730;37.818;2022-12-29T17:49:15;1.48;;;0.88;;
75154;SDS011;63735;44.730;37.818;2022-12-29T17:51:43;2.88;;;1.25;;
75154;SDS011;63735;44.730;37.818;2022-12-29T17:54:16;2.20;;;0.63;;
75154;SDS011;63735;44.730;37.818;2022-12-29T17:56:50;0.82;;;0.40;;
75154;SDS011;63735;44.730;37.818;2022-12-29T17:59:16;2.38;;;0.98;;
75154;SDS011;63735;44.730;37.818;2022-12-29T18:01:43;1.85;;;0.70;;
75154;SDS011;63735;44.730;37.818;2022-12-29T18:04:15;3.30;;;0.73;;
75154;SDS011;63735;44.730;37.818;2022-12-29T18:06:43;1.95;;;0.55;;
75154;SDS011;63735;44.730;37.818;2022-12-29T18:09:10;6.28;;;1.30;;